Long Point, Illinois
Current Conditions -  °F | °C
As of 8:35 PM on Sunday 25 Jan 2015 (Local Time) from KPNT Reporting Station
Overcast Overcast  
Wind Chill: 18°   Ceiling: 5500
Heat Index: 29°   Visibility: 10mi
Dew Point: 24°   Wind: 15mph
Humidity: 80%   Direction: 10°N
Pressure: 29.97"   Gusts: NA
Location:  41°N, 88.89°W
Report Text: KPNT 260235Z AUTO 01013KT 10SM SCT023 OVC055 M01/M05 A2997 RMK AO2 T10151046
Loading
Personal Weather Stations






























Interactive Weather Map New forecast layout! Learn more

10-Day Weather Forecast

Advertisements
Track Severe Weather on mobile